sensor_id;sensor_type;location;lat;lon;timestamp;P1;durP1;ratioP1;P2;durP2;ratioP2
54945;SDS011;40846;44.788;20.486;2023-12-20T00:01:50;38.50;;;24.73;;
54945;SDS011;40846;44.788;20.486;2023-12-20T00:04:16;38.60;;;24.60;;
54945;SDS011;40846;44.788;20.486;2023-12-20T00:06:42;41.83;;;25.80;;
54945;SDS011;40846;44.788;20.486;2023-12-20T00:09:08;44.58;;;27.73;;
54945;SDS011;40846;44.788;20.486;2023-12-20T00:11:34;40.72;;;24.55;;
54945;SDS011;40846;44.788;20.486;2023-12-20T00:14:00;36.10;;;24.45;;
54945;SDS011;40846;44.788;20.486;2023-12-20T00:16:26;36.80;;;22.33;;
54945;SDS011;40846;44.788;20.486;2023-12-20T00:18:52;44.70;;;25.60;;
54945;SDS011;40846;44.788;20.486;2023-12-20T00:21:17;36.05;;;21.58;;
54945;SDS011;40846;44.788;20.486;2023-12-20T00:23:43;52.20;;;26.38;;
54945;SDS011;40846;44.788;20.486;2023-12-20T00:26:09;38.00;;;24.65;;
54945;SDS011;40846;44.788;20.486;2023-12-20T00:28:35;44.10;;;26.33;;
54945;SDS011;40846;44.788;20.486;2023-12-20T00:31:02;37.80;;;23.58;;
54945;SDS011;40846;44.788;20.486;2023-12-20T00:33:28;39.75;;;23.65;;
54945;SDS011;40846;44.788;20.486;2023-12-20T00:35:55;35.17;;;22.17;;
54945;SDS011;40846;44.788;20.486;2023-12-20T00:38:20;35.65;;;21.73;;
54945;SDS011;40846;44.788;20.486;2023-12-20T00:40:46;32.42;;;21.17;;
54945;SDS011;40846;44.788;20.486;2023-12-20T00:43:12;32.38;;;19.83;;
54945;SDS011;40846;44.788;20.486;2023-12-20T00:45:38;37.55;;;23.15;;
54945;SDS011;40846;44.788;20.486;2023-12-20T00:48:06;38.10;;;22.90;;
54945;SDS011;40846;44.788;20.486;2023-12-20T00:50:32;45.35;;;23.65;;
54945;SDS011;40846;44.788;20.486;2023-12-20T00:52:58;41.53;;;21.92;;
54945;SDS011;40846;44.788;20.486;2023-12-20T00:55:24;62.70;;;26.20;;
54945;SDS011;40846;44.788;20.486;2023-12-20T00:57:50;142.93;;;49.88;;
54945;SDS011;40846;44.788;20.486;2023-12-20T01:00:15;58.25;;;25.45;;
54945;SDS011;40846;44.788;20.486;2023-12-20T01:02:41;84.45;;;29.77;;
54945;SDS011;40846;44.788;20.486;2023-12-20T01:05:07;41.10;;;20.13;;
54945;SDS011;40846;44.788;20.486;2023-12-20T01:07:34;36.47;;;17.75;;
54945;SDS011;40846;44.788;20.486;2023-12-20T01:10:00;118.05;;;42.35;;
54945;SDS011;40846;44.788;20.486;2023-12-20T01:12:26;100.75;;;38.15;;
54945;SDS011;40846;44.788;20.486;2023-12-20T01:14:52;109.97;;;49.65;;
54945;SDS011;40846;44.788;20.486;2023-12-20T01:17:17;35.35;;;20.77;;
54945;SDS011;40846;44.788;20.486;2023-12-20T01:19:43;33.85;;;19.70;;
54945;SDS011;40846;44.788;20.486;2023-12-20T01:22:09;29.10;;;16.67;;
54945;SDS011;40846;44.788;20.486;2023-12-20T01:24:35;25.52;;;15.63;;
54945;SDS011;40846;44.788;20.486;2023-12-20T01:27:00;28.00;;;15.38;;
54945;SDS011;40846;44.788;20.486;2023-12-20T01:29:26;25.55;;;15.85;;
54945;SDS011;40846;44.788;20.486;2023-12-20T01:31:52;26.60;;;16.40;;
54945;SDS011;40846;44.788;20.486;2023-12-20T01:34:18;28.45;;;16.90;;
54945;SDS011;40846;44.788;20.486;2023-12-20T01:36:43;29.70;;;16.98;;
54945;SDS011;40846;44.788;20.486;2023-12-20T01:39:09;30.88;;;16.63;;
54945;SDS011;40846;44.788;20.486;2023-12-20T01:41:35;27.58;;;17.20;;
54945;SDS011;40846;44.788;20.486;2023-12-20T01:44:01;26.92;;;16.80;;
54945;SDS011;40846;44.788;20.486;2023-12-20T01:46:26;37.28;;;19.05;;
54945;SDS011;40846;44.788;20.486;2023-12-20T01:48:52;40.97;;;25.83;;
54945;SDS011;40846;44.788;20.486;2023-12-20T01:51:19;68.05;;;41.90;;
54945;SDS011;40846;44.788;20.486;2023-12-20T01:53:45;76.38;;;43.85;;
54945;SDS011;40846;44.788;20.486;2023-12-20T01:56:12;71.03;;;42.75;;
54945;SDS011;40846;44.788;20.486;2023-12-20T01:58:39;73.55;;;43.75;;
54945;SDS011;40846;44.788;20.486;2023-12-20T02:01:07;69.63;;;41.92;;
54945;SDS011;40846;44.788;20.486;2023-12-20T02:03:33;67.38;;;39.97;;
54945;SDS011;40846;44.788;20.486;2023-12-20T02:06:01;69.00;;;40.10;;
54945;SDS011;40846;44.788;20.486;2023-12-20T02:08:30;66.90;;;41.10;;
54945;SDS011;40846;44.788;20.486;2023-12-20T02:10:55;66.57;;;41.58;;
54945;SDS011;40846;44.788;20.486;2023-12-20T02:13:21;71.03;;;42.70;;
54945;SDS011;40846;44.788;20.486;2023-12-20T02:15:47;70.72;;;41.88;;
54945;SDS011;40846;44.788;20.486;2023-12-20T02:18:13;72.95;;;42.65;;
54945;SDS011;40846;44.788;20.486;2023-12-20T02:20:41;77.03;;;45.28;;
54945;SDS011;40846;44.788;20.486;2023-12-20T02:23:07;77.90;;;47.88;;
54945;SDS011;40846;44.788;20.486;2023-12-20T02:25:33;78.63;;;48.60;;
54945;SDS011;40846;44.788;20.486;2023-12-20T02:27:59;81.13;;;49.28;;
54945;SDS011;40846;44.788;20.486;2023-12-20T02:30:25;94.07;;;56.65;;
54945;SDS011;40846;44.788;20.486;2023-12-20T02:32:50;97.05;;;58.78;;
54945;SDS011;40846;44.788;20.486;2023-12-20T02:35:17;99.43;;;59.08;;
54945;SDS011;40846;44.788;20.486;2023-12-20T02:37:43;107.45;;;59.70;;
54945;SDS011;40846;44.788;20.486;2023-12-20T02:40:09;109.95;;;61.72;;
54945;SDS011;40846;44.788;20.486;2023-12-20T02:42:35;104.90;;;60.75;;
54945;SDS011;40846;44.788;20.486;2023-12-20T02:45:01;108.30;;;62.30;;
54945;SDS011;40846;44.788;20.486;2023-12-20T02:47:27;147.90;;;85.20;;
54945;SDS011;40846;44.788;20.486;2023-12-20T02:49:55;125.40;;;71.13;;
54945;SDS011;40846;44.788;20.486;2023-12-20T02:52:22;131.90;;;73.32;;
54945;SDS011;40846;44.788;20.486;2023-12-20T02:54:48;130.15;;;74.63;;
54945;SDS011;40846;44.788;20.486;2023-12-20T02:57:14;130.88;;;73.07;;
54945;SDS011;40846;44.788;20.486;2023-12-20T02:59:40;121.82;;;75.47;;
54945;SDS011;40846;44.788;20.486;2023-12-20T03:02:06;124.07;;;74.50;;
54945;SDS011;40846;44.788;20.486;2023-12-20T03:04:32;128.60;;;77.75;;
54945;SDS011;40846;44.788;20.486;2023-12-20T03:06:58;140.43;;;83.95;;
54945;SDS011;40846;44.788;20.486;2023-12-20T03:09:24;128.02;;;74.10;;
54945;SDS011;40846;44.788;20.486;2023-12-20T03:11:51;147.35;;;88.47;;
54945;SDS011;40846;44.788;20.486;2023-12-20T03:14:17;126.70;;;74.35;;
54945;SDS011;40846;44.788;20.486;2023-12-20T03:16:46;121.15;;;72.43;;
54945;SDS011;40846;44.788;20.486;2023-12-20T03:19:12;128.00;;;74.03;;
54945;SDS011;40846;44.788;20.486;2023-12-20T03:21:38;123.97;;;74.13;;
54945;SDS011;40846;44.788;20.486;2023-12-20T03:24:04;124.57;;;71.78;;
54945;SDS011;40846;44.788;20.486;2023-12-20T03:26:31;128.20;;;73.68;;
54945;SDS011;40846;44.788;20.486;2023-12-20T03:28:57;125.47;;;72.43;;
54945;SDS011;40846;44.788;20.486;2023-12-20T03:31:23;128.18;;;71.53;;
54945;SDS011;40846;44.788;20.486;2023-12-20T03:33:49;127.13;;;72.28;;
54945;SDS011;40846;44.788;20.486;2023-12-20T03:36:17;120.50;;;73.22;;
54945;SDS011;40846;44.788;20.486;2023-12-20T03:38:43;135.32;;;75.80;;
54945;SDS011;40846;44.788;20.486;2023-12-20T03:41:09;124.13;;;72.90;;
54945;SDS011;40846;44.788;20.486;2023-12-20T03:43:35;129.52;;;75.32;;
54945;SDS011;40846;44.788;20.486;2023-12-20T03:46:01;136.82;;;79.30;;
54945;SDS011;40846;44.788;20.486;2023-12-20T03:48:30;135.75;;;77.82;;
54945;SDS011;40846;44.788;20.486;2023-12-20T03:50:57;141.68;;;81.15;;
54945;SDS011;40846;44.788;20.486;2023-12-20T03:53:23;139.77;;;79.85;;
54945;SDS011;40846;44.788;20.486;2023-12-20T03:55:49;137.93;;;81.82;;
54945;SDS011;40846;44.788;20.486;2023-12-20T03:58:14;140.32;;;80.90;;
54945;SDS011;40846;44.788;20.486;2023-12-20T04:00:40;130.30;;;77.93;;
54945;SDS011;40846;44.788;20.486;2023-12-20T04:03:06;130.60;;;74.90;;
54945;SDS011;40846;44.788;20.486;2023-12-20T04:05:32;130.35;;;74.35;;
54945;SDS011;40846;44.788;20.486;2023-12-20T04:07:59;129.20;;;73.20;;
54945;SDS011;40846;44.788;20.486;2023-12-20T04:10:26;120.28;;;72.50;;
54945;SDS011;40846;44.788;20.486;2023-12-20T04:12:52;123.35;;;73.05;;
54945;SDS011;40846;44.788;20.486;2023-12-20T04:15:18;122.20;;;73.40;;
54945;SDS011;40846;44.788;20.486;2023-12-20T04:17:44;126.50;;;72.85;;
54945;SDS011;40846;44.788;20.486;2023-12-20T04:20:10;122.57;;;72.00;;
54945;SDS011;40846;44.788;20.486;2023-12-20T04:22:36;121.70;;;73.45;;
54945;SDS011;40846;44.788;20.486;2023-12-20T04:25:02;128.50;;;75.13;;
54945;SDS011;40846;44.788;20.486;2023-12-20T04:27:28;131.48;;;74.75;;
54945;SDS011;40846;44.788;20.486;2023-12-20T04:29:57;127.15;;;74.18;;
54945;SDS011;40846;44.788;20.486;2023-12-20T04:32:23;129.23;;;74.10;;
54945;SDS011;40846;44.788;20.486;2023-12-20T04:34:48;122.32;;;73.63;;
54945;SDS011;40846;44.788;20.486;2023-12-20T04:37:14;124.57;;;75.32;;
54945;SDS011;40846;44.788;20.486;2023-12-20T04:39:40;131.85;;;78.07;;
54945;SDS011;40846;44.788;20.486;2023-12-20T04:42:06;129.52;;;73.28;;
54945;SDS011;40846;44.788;20.486;2023-12-20T04:44:32;140.38;;;81.32;;
54945;SDS011;40846;44.788;20.486;2023-12-20T04:46:59;153.13;;;88.90;;
54945;SDS011;40846;44.788;20.486;2023-12-20T04:49:25;146.60;;;83.03;;
54945;SDS011;40846;44.788;20.486;2023-12-20T04:51:52;140.98;;;79.07;;
54945;SDS011;40846;44.788;20.486;2023-12-20T04:54:18;141.25;;;82.05;;
54945;SDS011;40846;44.788;20.486;2023-12-20T04:56:43;144.30;;;80.50;;
54945;SDS011;40846;44.788;20.486;2023-12-20T04:59:09;137.50;;;81.55;;
54945;SDS011;40846;44.788;20.486;2023-12-20T05:01:35;135.65;;;78.85;;
54945;SDS011;40846;44.788;20.486;2023-12-20T05:04:01;143.75;;;81.88;;
54945;SDS011;40846;44.788;20.486;2023-12-20T05:06:27;146.70;;;83.00;;
54945;SDS011;40846;44.788;20.486;2023-12-20T05:08:52;144.43;;;82.05;;
54945;SDS011;40846;44.788;20.486;2023-12-20T05:11:18;137.85;;;79.35;;
54945;SDS011;40846;44.788;20.486;2023-12-20T05:13:44;162.68;;;90.50;;
54945;SDS011;40846;44.788;20.486;2023-12-20T05:16:10;144.98;;;80.22;;
54945;SDS011;40846;44.788;20.486;2023-12-20T05:18:36;133.30;;;78.53;;
54945;SDS011;40846;44.788;20.486;2023-12-20T05:21:01;136.73;;;78.35;;
54945;SDS011;40846;44.788;20.486;2023-12-20T05:23:27;125.95;;;74.00;;
54945;SDS011;40846;44.788;20.486;2023-12-20T05:25:53;126.55;;;74.22;;
54945;SDS011;40846;44.788;20.486;2023-12-20T05:28:19;128.57;;;74.38;;
54945;SDS011;40846;44.788;20.486;2023-12-20T05:30:44;125.50;;;74.20;;
54945;SDS011;40846;44.788;20.486;2023-12-20T05:33:10;130.15;;;75.78;;
54945;SDS011;40846;44.788;20.486;2023-12-20T05:35:36;132.95;;;78.15;;
54945;SDS011;40846;44.788;20.486;2023-12-20T05:38:02;136.93;;;78.85;;
54945;SDS011;40846;44.788;20.486;2023-12-20T05:40:28;145.93;;;84.82;;
54945;SDS011;40846;44.788;20.486;2023-12-20T05:42:53;144.98;;;84.45;;
54945;SDS011;40846;44.788;20.486;2023-12-20T05:45:19;149.60;;;83.00;;
54945;SDS011;40846;44.788;20.486;2023-12-20T05:47:45;156.00;;;90.97;;
54945;SDS011;40846;44.788;20.486;2023-12-20T05:50:11;148.02;;;84.65;;
54945;SDS011;40846;44.788;20.486;2023-12-20T05:52:37;191.15;;;99.43;;
54945;SDS011;40846;44.788;20.486;2023-12-20T05:55:03;155.70;;;87.30;;
54945;SDS011;40846;44.788;20.486;2023-12-20T05:57:29;150.50;;;85.38;;
54945;SDS011;40846;44.788;20.486;2023-12-20T05:59:55;147.65;;;82.28;;
54945;SDS011;40846;44.788;20.486;2023-12-20T06:02:21;148.20;;;83.78;;
54945;SDS011;40846;44.788;20.486;2023-12-20T06:04:47;152.70;;;84.45;;
54945;SDS011;40846;44.788;20.486;2023-12-20T06:07:13;139.98;;;80.45;;
54945;SDS011;40846;44.788;20.486;2023-12-20T06:09:40;140.18;;;80.03;;
54945;SDS011;40846;44.788;20.486;2023-12-20T06:12:06;127.50;;;73.78;;
54945;SDS011;40846;44.788;20.486;2023-12-20T06:14:36;131.43;;;73.72;;
54945;SDS011;40846;44.788;20.486;2023-12-20T06:17:02;127.53;;;74.50;;
54945;SDS011;40846;44.788;20.486;2023-12-20T06:19:28;133.88;;;75.20;;
54945;SDS011;40846;44.788;20.486;2023-12-20T06:21:54;124.22;;;71.20;;
54945;SDS011;40846;44.788;20.486;2023-12-20T06:24:20;126.18;;;73.30;;
54945;SDS011;40846;44.788;20.486;2023-12-20T06:26:46;125.00;;;74.20;;
54945;SDS011;40846;44.788;20.486;2023-12-20T06:29:12;117.18;;;69.97;;
54945;SDS011;40846;44.788;20.486;2023-12-20T06:31:39;111.82;;;67.45;;
54945;SDS011;40846;44.788;20.486;2023-12-20T06:34:05;121.60;;;71.38;;
54945;SDS011;40846;44.788;20.486;2023-12-20T06:36:31;130.60;;;75.32;;
54945;SDS011;40846;44.788;20.486;2023-12-20T06:38:57;130.98;;;75.88;;
54945;SDS011;40846;44.788;20.486;2023-12-20T06:41:24;156.88;;;85.50;;
54945;SDS011;40846;44.788;20.486;2023-12-20T06:43:50;118.65;;;68.32;;
54945;SDS011;40846;44.788;20.486;2023-12-20T06:46:18;110.28;;;67.70;;
54945;SDS011;40846;44.788;20.486;2023-12-20T06:48:44;103.18;;;62.60;;
54945;SDS011;40846;44.788;20.486;2023-12-20T06:51:16;113.40;;;65.55;;
54945;SDS011;40846;44.788;20.486;2023-12-20T06:53:44;113.70;;;67.15;;
54945;SDS011;40846;44.788;20.486;2023-12-20T06:56:11;112.03;;;67.05;;
54945;SDS011;40846;44.788;20.486;2023-12-20T06:58:41;117.90;;;71.22;;
54945;SDS011;40846;44.788;20.486;2023-12-20T07:01:11;124.90;;;73.00;;
54945;SDS011;40846;44.788;20.486;2023-12-20T07:03:38;124.97;;;72.10;;
54945;SDS011;40846;44.788;20.486;2023-12-20T07:06:05;122.22;;;71.00;;
54945;SDS011;40846;44.788;20.486;2023-12-20T07:08:31;127.68;;;71.68;;
54945;SDS011;40846;44.788;20.486;2023-12-20T07:11:00;121.13;;;71.75;;
54945;SDS011;40846;44.788;20.486;2023-12-20T07:13:26;138.32;;;75.30;;
54945;SDS011;40846;44.788;20.486;2023-12-20T07:15:52;131.48;;;75.03;;
54945;SDS011;40846;44.788;20.486;2023-12-20T07:18:18;193.73;;;114.22;;
54945;SDS011;40846;44.788;20.486;2023-12-20T07:20:45;239.48;;;137.48;;
54945;SDS011;40846;44.788;20.486;2023-12-20T07:23:11;234.45;;;142.65;;
54945;SDS011;40846;44.788;20.486;2023-12-20T07:25:37;297.35;;;189.00;;
54945;SDS011;40846;44.788;20.486;2023-12-20T07:28:03;215.05;;;137.52;;
54945;SDS011;40846;44.788;20.486;2023-12-20T07:30:30;221.40;;;149.80;;
54945;SDS011;40846;44.788;20.486;2023-12-20T07:32:56;193.32;;;116.72;;
54945;SDS011;40846;44.788;20.486;2023-12-20T07:35:25;163.57;;;97.68;;
54945;SDS011;40846;44.788;20.486;2023-12-20T07:37:51;162.90;;;92.47;;
54945;SDS011;40846;44.788;20.486;2023-12-20T07:40:17;155.95;;;84.80;;
54945;SDS011;40846;44.788;20.486;2023-12-20T07:42:43;134.75;;;78.85;;
54945;SDS011;40846;44.788;20.486;2023-12-20T07:45:09;140.38;;;75.63;;
54945;SDS011;40846;44.788;20.486;2023-12-20T07:47:35;187.10;;;99.25;;
54945;SDS011;40846;44.788;20.486;2023-12-20T07:50:02;218.55;;;108.53;;
54945;SDS011;40846;44.788;20.486;2023-12-20T07:52:28;284.17;;;132.90;;
54945;SDS011;40846;44.788;20.486;2023-12-20T07:54:55;170.52;;;88.88;;
54945;SDS011;40846;44.788;20.486;2023-12-20T07:57:21;160.35;;;89.45;;
54945;SDS011;40846;44.788;20.486;2023-12-20T07:59:47;164.00;;;89.38;;
54945;SDS011;40846;44.788;20.486;2023-12-20T08:02:12;138.00;;;78.75;;
54945;SDS011;40846;44.788;20.486;2023-12-20T08:04:39;155.35;;;79.78;;
54945;SDS011;40846;44.788;20.486;2023-12-20T08:07:06;174.55;;;89.30;;
54945;SDS011;40846;44.788;20.486;2023-12-20T08:09:32;147.80;;;83.13;;
54945;SDS011;40846;44.788;20.486;2023-12-20T08:11:59;152.90;;;86.03;;
54945;SDS011;40846;44.788;20.486;2023-12-20T08:14:25;153.65;;;80.72;;
54945;SDS011;40846;44.788;20.486;2023-12-20T08:16:51;137.45;;;83.65;;
54945;SDS011;40846;44.788;20.486;2023-12-20T08:19:18;158.65;;;82.32;;
54945;SDS011;40846;44.788;20.486;2023-12-20T08:21:46;147.43;;;81.05;;
54945;SDS011;40846;44.788;20.486;2023-12-20T08:24:12;133.40;;;73.10;;
54945;SDS011;40846;44.788;20.486;2023-12-20T08:26:38;131.38;;;71.50;;
54945;SDS011;40846;44.788;20.486;2023-12-20T08:29:04;140.90;;;71.68;;
54945;SDS011;40846;44.788;20.486;2023-12-20T08:31:31;131.80;;;70.15;;
54945;SDS011;40846;44.788;20.486;2023-12-20T08:33:57;118.78;;;65.35;;
54945;SDS011;40846;44.788;20.486;2023-12-20T08:36:23;123.03;;;63.40;;
54945;SDS011;40846;44.788;20.486;2023-12-20T08:38:49;129.65;;;72.40;;
54945;SDS011;40846;44.788;20.486;2023-12-20T08:41:16;122.95;;;69.53;;
54945;SDS011;40846;44.788;20.486;2023-12-20T08:43:42;130.27;;;73.03;;
54945;SDS011;40846;44.788;20.486;2023-12-20T08:46:09;140.57;;;71.65;;
54945;SDS011;40846;44.788;20.486;2023-12-20T08:48:35;156.00;;;84.10;;
54945;SDS011;40846;44.788;20.486;2023-12-20T08:51:02;140.73;;;74.40;;
54945;SDS011;40846;44.788;20.486;2023-12-20T08:53:28;122.80;;;60.92;;
54945;SDS011;40846;44.788;20.486;2023-12-20T08:55:54;112.57;;;57.53;;
54945;SDS011;40846;44.788;20.486;2023-12-20T08:58:21;111.32;;;54.70;;
54945;SDS011;40846;44.788;20.486;2023-12-20T09:00:47;96.65;;;52.47;;
54945;SDS011;40846;44.788;20.486;2023-12-20T09:03:13;115.03;;;58.45;;
54945;SDS011;40846;44.788;20.486;2023-12-20T09:05:39;104.47;;;55.42;;
54945;SDS011;40846;44.788;20.486;2023-12-20T09:08:05;93.20;;;47.58;;
54945;SDS011;40846;44.788;20.486;2023-12-20T09:10:35;92.72;;;50.33;;
54945;SDS011;40846;44.788;20.486;2023-12-20T09:13:02;92.22;;;52.20;;
54945;SDS011;40846;44.788;20.486;2023-12-20T09:15:31;91.95;;;52.35;;
54945;SDS011;40846;44.788;20.486;2023-12-20T09:17:59;87.57;;;51.05;;
54945;SDS011;40846;44.788;20.486;2023-12-20T09:20:25;99.13;;;51.83;;
54945;SDS011;40846;44.788;20.486;2023-12-20T09:22:52;95.18;;;50.40;;
54945;SDS011;40846;44.788;20.486;2023-12-20T09:25:18;97.07;;;54.50;;
54945;SDS011;40846;44.788;20.486;2023-12-20T09:27:44;96.53;;;55.28;;
54945;SDS011;40846;44.788;20.486;2023-12-20T09:30:10;94.95;;;52.35;;
54945;SDS011;40846;44.788;20.486;2023-12-20T09:32:36;90.75;;;51.33;;
54945;SDS011;40846;44.788;20.486;2023-12-20T09:35:02;84.63;;;51.75;;
54945;SDS011;40846;44.788;20.486;2023-12-20T09:37:30;82.43;;;49.95;;
54945;SDS011;40846;44.788;20.486;2023-12-20T09:39:56;114.40;;;60.40;;
54945;SDS011;40846;44.788;20.486;2023-12-20T09:45:24;84.68;;;48.30;;
54945;SDS011;40846;44.788;20.486;2023-12-20T09:47:51;80.28;;;46.47;;
54945;SDS011;40846;44.788;20.486;2023-12-20T09:50:20;79.38;;;46.05;;
54945;SDS011;40846;44.788;20.486;2023-12-20T09:52:50;88.72;;;48.60;;
54945;SDS011;40846;44.788;20.486;2023-12-20T09:55:19;86.85;;;44.30;;
54945;SDS011;40846;44.788;20.486;2023-12-20T09:57:46;82.65;;;44.13;;
54945;SDS011;40846;44.788;20.486;2023-12-20T10:00:13;78.78;;;43.75;;
54945;SDS011;40846;44.788;20.486;2023-12-20T10:03:01;76.57;;;47.35;;
54945;SDS011;40846;44.788;20.486;2023-12-20T10:05:33;74.90;;;46.53;;
54945;SDS011;40846;44.788;20.486;2023-12-20T10:08:05;78.10;;;46.83;;
54945;SDS011;40846;44.788;20.486;2023-12-20T10:10:31;73.22;;;46.67;;
54945;SDS011;40846;44.788;20.486;2023-12-20T10:15:29;78.82;;;48.55;;
54945;SDS011;40846;44.788;20.486;2023-12-20T10:17:56;76.07;;;48.20;;
54945;SDS011;40846;44.788;20.486;2023-12-20T10:20:25;86.60;;;50.45;;
54945;SDS011;40846;44.788;20.486;2023-12-20T10:22:54;77.17;;;48.57;;
54945;SDS011;40846;44.788;20.486;2023-12-20T10:25:20;81.30;;;48.88;;
54945;SDS011;40846;44.788;20.486;2023-12-20T10:27:46;73.45;;;47.88;;
54945;SDS011;40846;44.788;20.486;2023-12-20T10:30:13;82.63;;;50.63;;
54945;SDS011;40846;44.788;20.486;2023-12-20T10:32:39;83.40;;;50.58;;
54945;SDS011;40846;44.788;20.486;2023-12-20T10:35:06;81.53;;;51.97;;
54945;SDS011;40846;44.788;20.486;2023-12-20T10:37:38;86.07;;;53.80;;
54945;SDS011;40846;44.788;20.486;2023-12-20T10:40:04;91.32;;;54.03;;
54945;SDS011;40846;44.788;20.486;2023-12-20T10:42:31;97.22;;;58.35;;
54945;SDS011;40846;44.788;20.486;2023-12-20T10:45:01;109.32;;;62.33;;
54945;SDS011;40846;44.788;20.486;2023-12-20T10:47:27;101.65;;;63.47;;
54945;SDS011;40846;44.788;20.486;2023-12-20T10:49:53;93.97;;;61.25;;
54945;SDS011;40846;44.788;20.486;2023-12-20T10:52:20;99.05;;;64.00;;
54945;SDS011;40846;44.788;20.486;2023-12-20T10:54:49;118.25;;;66.65;;
54945;SDS011;40846;44.788;20.486;2023-12-20T10:57:16;102.78;;;63.47;;
54945;SDS011;40846;44.788;20.486;2023-12-20T10:59:44;120.15;;;66.00;;
54945;SDS011;40846;44.788;20.486;2023-12-20T11:02:14;131.18;;;70.40;;
54945;SDS011;40846;44.788;20.486;2023-12-20T11:07:23;113.20;;;68.97;;
54945;SDS011;40846;44.788;20.486;2023-12-20T11:09:56;106.00;;;67.30;;
54945;SDS011;40846;44.788;20.486;2023-12-20T11:12:28;104.65;;;64.60;;
54945;SDS011;40846;44.788;20.486;2023-12-20T11:14:58;98.75;;;62.30;;
54945;SDS011;40846;44.788;20.486;2023-12-20T11:17:29;95.15;;;63.50;;
54945;SDS011;40846;44.788;20.486;2023-12-20T11:22:21;94.38;;;58.13;;
54945;SDS011;40846;44.788;20.486;2023-12-20T11:24:48;90.18;;;58.03;;
54945;SDS011;40846;44.788;20.486;2023-12-20T11:27:14;90.38;;;56.38;;
54945;SDS011;40846;44.788;20.486;2023-12-20T11:29:41;108.45;;;64.28;;
54945;SDS011;40846;44.788;20.486;2023-12-20T11:37:36;93.83;;;57.70;;
54945;SDS011;40846;44.788;20.486;2023-12-20T11:40:04;86.90;;;53.80;;
54945;SDS011;40846;44.788;20.486;2023-12-20T11:42:40;105.07;;;58.85;;
54945;SDS011;40846;44.788;20.486;2023-12-20T11:45:10;97.80;;;55.95;;
54945;SDS011;40846;44.788;20.486;2023-12-20T11:47:36;86.10;;;54.78;;
54945;SDS011;40846;44.788;20.486;2023-12-20T11:50:02;161.73;;;90.53;;
54945;SDS011;40846;44.788;20.486;2023-12-20T11:52:29;113.35;;;64.78;;
54945;SDS011;40846;44.788;20.486;2023-12-20T11:54:57;161.40;;;81.63;;
54945;SDS011;40846;44.788;20.486;2023-12-20T11:57:23;105.38;;;61.20;;
54945;SDS011;40846;44.788;20.486;2023-12-20T11:59:49;92.18;;;57.55;;
54945;SDS011;40846;44.788;20.486;2023-12-20T12:02:15;151.00;;;81.20;;
54945;SDS011;40846;44.788;20.486;2023-12-20T12:04:41;139.50;;;80.80;;
54945;SDS011;40846;44.788;20.486;2023-12-20T12:07:08;143.98;;;87.38;;
54945;SDS011;40846;44.788;20.486;2023-12-20T12:09:34;108.20;;;66.38;;
54945;SDS011;40846;44.788;20.486;2023-12-20T12:12:00;147.32;;;84.78;;
54945;SDS011;40846;44.788;20.486;2023-12-20T12:14:26;109.30;;;68.93;;
54945;SDS011;40846;44.788;20.486;2023-12-20T12:16:53;109.03;;;63.80;;
54945;SDS011;40846;44.788;20.486;2023-12-20T12:19:23;110.05;;;62.92;;
54945;SDS011;40846;44.788;20.486;2023-12-20T12:21:49;100.95;;;64.38;;
54945;SDS011;40846;44.788;20.486;2023-12-20T12:24:19;117.20;;;65.70;;
54945;SDS011;40846;44.788;20.486;2023-12-20T12:26:50;104.05;;;62.45;;
54945;SDS011;40846;44.788;20.486;2023-12-20T12:29:16;96.00;;;60.38;;
54945;SDS011;40846;44.788;20.486;2023-12-20T12:31:42;97.60;;;59.55;;
54945;SDS011;40846;44.788;20.486;2023-12-20T12:34:09;112.57;;;62.67;;
54945;SDS011;40846;44.788;20.486;2023-12-20T12:36:35;92.22;;;62.28;;
54945;SDS011;40846;44.788;20.486;2023-12-20T12:39:02;140.27;;;84.82;;
54945;SDS011;40846;44.788;20.486;2023-12-20T12:41:30;101.28;;;64.25;;
54945;SDS011;40846;44.788;20.486;2023-12-20T12:43:58;107.30;;;66.68;;
54945;SDS011;40846;44.788;20.486;2023-12-20T12:46:24;104.43;;;66.47;;
54945;SDS011;40846;44.788;20.486;2023-12-20T12:48:51;107.72;;;64.10;;
54945;SDS011;40846;44.788;20.486;2023-12-20T12:51:17;111.32;;;68.82;;
54945;SDS011;40846;44.788;20.486;2023-12-20T12:53:43;138.63;;;83.82;;
54945;SDS011;40846;44.788;20.486;2023-12-20T12:56:09;113.80;;;68.20;;
54945;SDS011;40846;44.788;20.486;2023-12-20T12:58:35;103.97;;;68.75;;
54945;SDS011;40846;44.788;20.486;2023-12-20T13:01:01;119.18;;;73.25;;
54945;SDS011;40846;44.788;20.486;2023-12-20T13:03:28;103.55;;;69.55;;
54945;SDS011;40846;44.788;20.486;2023-12-20T13:05:54;113.35;;;69.07;;
54945;SDS011;40846;44.788;20.486;2023-12-20T13:08:20;111.28;;;67.95;;
54945;SDS011;40846;44.788;20.486;2023-12-20T13:10:46;115.55;;;72.05;;
54945;SDS011;40846;44.788;20.486;2023-12-20T13:13:13;113.47;;;70.40;;
54945;SDS011;40846;44.788;20.486;2023-12-20T13:15:39;119.18;;;77.78;;
54945;SDS011;40846;44.788;20.486;2023-12-20T13:18:05;115.55;;;75.20;;
54945;SDS011;40846;44.788;20.486;2023-12-20T13:20:33;122.03;;;76.18;;
54945;SDS011;40846;44.788;20.486;2023-12-20T13:22:59;118.40;;;74.93;;
54945;SDS011;40846;44.788;20.486;2023-12-20T13:25:25;122.50;;;77.30;;
54945;SDS011;40846;44.788;20.486;2023-12-20T13:27:52;126.25;;;76.97;;
54945;SDS011;40846;44.788;20.486;2023-12-20T13:30:19;126.63;;;78.15;;
54945;SDS011;40846;44.788;20.486;2023-12-20T13:32:45;126.68;;;77.75;;
54945;SDS011;40846;44.788;20.486;2023-12-20T13:35:11;120.65;;;77.68;;
54945;SDS011;40846;44.788;20.486;2023-12-20T13:37:40;129.75;;;78.38;;
54945;SDS011;40846;44.788;20.486;2023-12-20T13:40:06;123.53;;;77.97;;
54945;SDS011;40846;44.788;20.486;2023-12-20T13:42:32;129.60;;;79.15;;
54945;SDS011;40846;44.788;20.486;2023-12-20T13:44:59;159.35;;;90.00;;
54945;SDS011;40846;44.788;20.486;2023-12-20T13:47:25;120.13;;;78.88;;
54945;SDS011;40846;44.788;20.486;2023-12-20T13:49:51;125.65;;;79.53;;
54945;SDS011;40846;44.788;20.486;2023-12-20T13:52:17;120.45;;;78.30;;
54945;SDS011;40846;44.788;20.486;2023-12-20T13:54:43;114.90;;;75.03;;
54945;SDS011;40846;44.788;20.486;2023-12-20T13:57:09;126.75;;;81.90;;
54945;SDS011;40846;44.788;20.486;2023-12-20T13:59:36;124.28;;;79.40;;
54945;SDS011;40846;44.788;20.486;2023-12-20T14:02:02;128.38;;;81.47;;
54945;SDS011;40846;44.788;20.486;2023-12-20T14:04:28;123.03;;;79.50;;
54945;SDS011;40846;44.788;20.486;2023-12-20T14:06:54;113.20;;;75.05;;
54945;SDS011;40846;44.788;20.486;2023-12-20T14:09:20;117.18;;;77.13;;
54945;SDS011;40846;44.788;20.486;2023-12-20T14:11:47;119.20;;;77.55;;
54945;SDS011;40846;44.788;20.486;2023-12-20T14:14:13;122.80;;;80.00;;